Time;durP1;ratioP1;P1;durP2;ratioP2;P2;SDS_P1;SDS_P2;PMS_P1;PMS_P2;Temp;Humidity;BMP_temperature;BMP_pressure;BME280_temperature;BME280_humidity;BME280_pressure;Samples;Min_cycle;Max_cycle;Signal;HPM_P1;HPM_P2
2021/09/01 01:41:02;627197.00;2.09;1081.20;52800.00;0.18;92.03;;;;;18.80;1.00;;;;;;2557028;56;1377;-89
2021/09/01 01:50:05;;;;;;;;;;;;;;;;;;;;;
2021/09/01 02:38:44;;;;;;;;;;;;;;;;;;;;;
2021/09/01 02:41:17;527198.00;1.76;908.66;0.00;0.00;0.62;;;;;18.20;1.00;;;;;;2506743;57;1324;-90
2021/09/01 02:43:51;540824.00;1.80;932.14;0.00;0.00;0.62;;;;;17.50;1.00;;;;;;2511867;57;1251;-90
2021/09/01 02:46:40;632854.00;2.11;1090.98;0.00;0.00;0.62;;;;;17.10;1.00;;;;;;2521702;56;1028;-90
2021/09/01 02:49:21;738631.00;2.46;1274.30;0.00;0.00;0.62;;;;;17.20;1.00;;;;;;2519657;57;1957;-90
2021/09/01 02:51:53;828198.00;2.76;1430.35;71312.00;0.24;124.03;;;;;17.50;1.00;;;;;;2528681;56;1513;-89
2021/09/01 02:54:53;803747.00;2.68;1387.66;58042.00;0.19;101.09;;;;;17.90;3.10;;;;;;2521576;56;977;-89
2021/09/01 02:57:25;1408391.00;4.69;2471.90;106216.00;0.35;184.30;;;;;18.40;1.40;;;;;;2513679;56;1571;-90
2021/09/01 03:00:07;;;;;;;;;;;;;;;;;;;;;
2021/09/01 03:02:54;2125986.00;7.09;3886.31;240612.00;0.80;415.80;;;;;18.20;1.00;;;;;;2526331;56;1389;-90
2021/09/01 03:05:41;;;;;;;;;;;;;;;;;;;;;
2021/09/01 03:08:21;654976.00;2.18;1129.25;0.00;0.00;0.62;;;;;17.80;1.00;;;;;;2524514;56;1044;-89
2021/09/01 03:11:06;420507.00;1.40;725.06;0.00;0.00;0.62;;;;;17.70;1.00;;;;;;2526797;56;1910;-89
2021/09/01 03:13:36;598524.00;2.00;1031.67;0.00;0.00;0.62;;;;;17.80;1.00;;;;;;2545681;56;1043;-89
2021/09/01 03:16:20;121844064.00;406.15;73280048.00;0.00;0.00;0.62;;;;;17.30;1.00;;;;;;2549120;56;975;-90
2021/09/01 03:19:05;730848.00;2.44;1260.77;2410.00;0.01;4.80;;;;;17.40;1.00;;;;;;2546692;56;955;-89
2021/09/01 03:21:47;692982.00;2.31;1195.07;0.00;0.00;0.62;;;;;17.20;1.00;;;;;;2543366;56;1256;-89
2021/09/01 03:27:30;842849.00;2.81;1455.96;95385.00;0.32;165.61;;;;;17.70;2.10;;;;;;2539561;56;1003;-89
2021/09/01 03:30:03;1811859.00;6.04;3244.89;241126.00;0.80;416.69;;;;;17.70;1.00;;;;;;2539343;56;1909;-90
2021/09/01 03:32:41;2139569.00;7.13;3914.96;160822.00;0.54;278.46;;;;;17.70;1.00;;;;;;2541640;56;1431;-89
2021/09/01 03:35:18;2174267.00;7.25;3988.51;320104.00;1.07;552.48;;;;;17.60;1.00;;;;;;2539754;56;1189;-89
2021/09/01 03:38:02;;;;;;;;;;;;;;;;;;;;;
2021/09/01 03:43:50;366244.00;1.22;631.78;0.00;0.00;0.62;;;;;18.20;1.00;;;;;;2536651;56;993;-89
2021/09/01 03:46:33;640792.00;2.14;1104.71;175.00;0.00;0.92;;;;;18.00;1.00;;;;;;2511729;57;986;-89
2021/09/01 03:52:36;;;;;;;;;;;;;;;;;;;;;
2021/09/01 03:58:15;;;;;;;;;;;;;;;;;;;;;
2021/09/01 04:01:15;1441775.00;4.81;2534.03;146905.00;0.49;254.47;;;;;18.10;1.00;;;;;;2506833;57;1332;-88
2021/09/01 04:06:40;539261.00;1.80;929.45;0.00;0.00;0.62;;;;;17.80;1.30;;;;;;2517947;56;1693;-88
2021/09/01 04:09:37;;;;;;;;;;;;;;;;;;;;;
2021/09/01 04:12:11;672709.00;2.24;1159.94;0.00;0.00;0.62;;;;;17.80;1.00;;;;;;2513356;56;1374;-89
2021/09/01 04:15:11;689000.00;2.30;1188.17;0.00;0.00;0.62;;;;;17.70;1.00;;;;;;2521620;56;1699;-89
2021/09/01 04:35:42;1024062.00;3.41;1775.14;21949.00;0.07;38.65;;;;;18.80;1.00;;;;;;2570745;55;558;-89
2021/09/01 04:38:28;1046740.00;3.49;1815.43;88503.00;0.30;153.72;;;;;19.00;1.00;;;;;;2556892;56;910;-91
2021/09/01 04:41:11;590648.00;1.97;1018.07;0.00;0.00;0.62;;;;;18.70;1.00;;;;;;2551615;56;1402;-90
2021/09/01 04:43:44;383501.00;1.28;661.44;0.00;0.00;0.62;;;;;18.00;1.00;;;;;;2551847;56;983;-91
2021/09/01 04:46:36;;;;;;;;;;;;;;;;;;;;;
2021/09/01 04:49:11;464931.00;1.55;801.47;0.00;0.00;0.62;;;;;17.60;1.00;;;;;;2526526;56;1937;-90
2021/09/01 04:51:50;651284.00;2.17;1122.86;45296.00;0.15;79.05;;;;;17.30;3.10;;;;;;2526574;56;1334;-91
2021/09/01 04:54:23;477239.00;1.59;822.65;15481.00;0.05;27.44;;;;;17.30;1.00;;;;;;2521647;56;1042;-90
2021/09/01 04:56:54;601506.00;2.01;1036.82;0.00;0.00;0.62;;;;;17.60;1.00;;;;;;2530493;56;1180;-91
2021/09/01 04:59:31;;;;;;;;;;;;;;;;;;;;;
2021/09/01 05:02:20;337197.00;1.12;581.86;0.00;0.00;0.62;;;;;18.10;1.00;;;;;;2516930;56;1607;-91
2021/09/01 05:04:47;859206.00;2.86;1484.58;73519.00;0.25;127.84;;;;;18.10;1.00;;;;;;2500552;57;990;-90
2021/09/01 05:07:42;692439.00;2.31;1194.13;84819.00;0.28;147.36;;;;;17.80;1.00;;;;;;2502925;57;992;-90
2021/09/01 05:10:27;1456555.00;4.86;2561.63;137990.00;0.46;239.11;;;;;17.90;1.10;;;;;;2513522;56;1899;-89
2021/09/01 05:16:42;149213440.00;497.38;134666880.00;0.00;0.00;0.62;;;;;18.80;1.00;;;;;;2504709;57;1022;-89
2021/09/01 05:19:21;710433.00;2.37;1225.34;0.00;0.00;0.62;;;;;18.80;1.00;;;;;;2511944;57;1005;-92
2021/09/01 05:36:00;283307.00;0.94;489.22;0.00;0.00;0.62;;;;;18.80;1.00;;;;;;2581257;55;562;-90
2021/09/01 05:45:05;;;;;;;;;;;;;;;;;;;;;
2021/09/01 07:14:25;437516.00;1.46;754.31;0.00;0.00;0.62;;;;;19.70;1.00;;;;;;2477080;57;1473;-90
2021/09/01 07:16:56;411819.00;1.37;710.12;0.00;0.00;0.62;;;;;19.60;1.00;;;;;;2480508;57;1012;-90
2021/09/01 07:19:25;525745.00;1.75;906.16;0.00;0.00;0.62;;;;;19.90;1.00;;;;;;2483027;57;1014;-91
2021/09/01 07:22:02;;;;;;;;;;;;;;;;;;;;;
2021/09/01 07:24:32;765108.00;2.55;1320.34;0.00;0.00;0.62;;;;;19.40;1.00;;;;;;2476203;57;1090;-90
2021/09/01 07:27:04;667135.00;2.22;1150.29;64361.00;0.21;112.02;;;;;19.10;1.00;;;;;;2476847;57;1073;-91
2021/09/01 07:29:42;604932.00;2.02;1042.74;0.00;0.00;0.62;;;;;18.70;1.00;;;;;;2490975;57;1971;-91
2021/09/01 07:50:22;1250812.00;4.17;2182.36;40285.00;0.13;70.38;;;;;19.10;1.00;;;;;;2578469;40;3650;-87
2021/09/01 07:52:49;960083.00;3.20;1661.90;140069.00;0.47;242.69;;;;;18.80;1.00;;;;;;2587872;55;1374;-91
2021/09/01 07:55:17;1025947.00;3.42;1778.48;80076.00;0.27;139.17;;;;;19.30;1.00;;;;;;2588009;55;946;-90
2021/09/01 07:57:44;118106864.00;393.69;66736120.00;0.00;0.00;0.62;;;;;19.50;1.00;;;;;;2586287;55;1129;-89
2021/09/01 08:00:12;651678.00;2.17;1123.54;23790.00;0.08;41.83;;;;;19.00;1.00;;;;;;2588510;55;945;-91
2021/09/01 08:02:49;1597325.00;5.32;2827.63;136912.00;0.46;237.25;;;;;19.30;1.00;;;;;;2588417;55;1739;-89
2021/09/01 08:05:21;583793.00;1.95;1006.24;40431.00;0.13;70.63;;;;;19.60;1.00;;;;;;2586316;55;1505;-90
2021/09/01 08:07:52;526207.00;1.75;906.96;0.00;0.00;0.62;;;;;19.80;1.00;;;;;;2588458;55;954;-88
2021/09/01 08:10:19;1199912.00;4.00;2090.06;60860.00;0.20;105.96;;;;;19.80;1.00;;;;;;2585867;55;1904;-90
2021/09/01 12:03:14;;;;;;;;;;;;;;;;;;;;;
2021/09/01 12:05:45;666385.00;2.22;1148.99;88969.00;0.30;154.53;;;;;21.70;1.00;;;;;;2568988;55;1021;-91
2021/09/01 12:24:13;231706.00;0.77;400.48;0.00;0.00;0.62;;;;;22.30;1.00;;;;;;2586515;55;747;-91
2021/09/01 12:45:45;369728.00;1.23;637.77;0.00;0.00;0.62;;;;;23.30;1.00;;;;;;2539005;56;1046;-90
2021/09/01 13:03:38;297756.00;0.99;514.06;0.00;0.00;0.62;;;;;22.70;1.00;;;;;;2581320;55;738;-89
2021/09/01 13:06:10;640275.00;2.13;1103.81;1989.00;0.01;4.07;;;;;22.40;1.00;;;;;;2572412;55;922;-89
2021/09/01 13:08:47;1039378.00;3.46;1802.34;91557.00;0.31;159.00;;;;;22.20;1.00;;;;;;2562125;56;909;-91
2021/09/01 13:11:14;749509.00;2.50;1293.20;104222.00;0.35;180.86;;;;;22.40;1.00;;;;;;2561947;56;1954;-89
2021/09/01 13:29:18;786941.00;2.62;1358.36;64367.00;0.21;112.03;;;;;22.50;1.00;;;;;;2575975;55;649;-90
2021/09/01 14:08:10;772543.00;2.58;1333.28;0.00;0.00;0.62;;;;;22.60;1.00;;;;;;2575922;55;544;-91
2021/09/01 14:10:45;1740045.00;5.80;3103.50;403445.00;1.34;695.73;;;;;22.60;1.00;;;;;;2567237;56;1957;-93
2021/09/01 14:13:12;1498897.00;5.00;2641.04;152881.00;0.51;264.77;;;;;22.30;1.00;;;;;;2564368;56;1783;-90
2021/09/01 14:15:48;521260.00;1.74;898.44;66475.00;0.22;115.67;;;;;22.40;1.00;;;;;;2567247;55;993;-90
2021/09/01 14:18:19;717330.00;2.39;1237.30;72447.00;0.24;125.99;;;;;22.80;1.00;;;;;;2567220;55;1273;-91
2021/09/01 14:23:40;1204133.00;4.01;2097.69;205944.00;0.69;356.15;;;;;22.80;1.00;;;;;;2575998;55;658;-92
2021/09/01 14:55:38;691662.00;2.31;1192.78;119062.00;0.40;206.46;;;;;23.10;1.00;;;;;;2559864;56;1036;-93
2021/09/01 14:58:05;606062.00;2.02;1044.69;44315.00;0.15;77.35;;;;;23.50;1.00;;;;;;2559505;56;1742;-92
2021/09/01 15:00:32;525863.00;1.75;906.36;77218.00;0.26;134.23;;;;;23.60;1.00;;;;;;2574468;55;1339;-92
2021/09/01 15:02:59;440501.00;1.47;759.44;72506.00;0.24;126.09;;;;;23.90;1.00;;;;;;2578154;55;938;-93
2021/09/01 15:05:26;263613.00;0.88;455.36;0.00;0.00;0.62;;;;;24.00;1.00;;;;;;2575885;55;1120;-92
2021/09/01 15:07:54;460647.00;1.54;794.10;9667.00;0.03;17.37;;;;;24.10;1.00;;;;;;2572264;55;1623;-90
2021/09/01 15:10:24;331990.00;1.11;572.91;21287.00;0.07;37.50;;;;;23.20;1.00;;;;;;2561955;56;1961;-90
2021/09/01 15:12:54;655294.00;2.18;1129.80;38263.00;0.13;66.88;;;;;22.60;1.00;;;;;;2546663;56;1401;-91
2021/09/01 15:15:21;714345.00;2.38;1232.12;59158.00;0.20;103.02;;;;;22.80;1.00;;;;;;2541653;56;961;-91
2021/09/01 16:32:56;391901.00;1.31;675.88;14513.00;0.05;25.77;;;;;22.50;1.00;;;;;;2576114;55;1344;-92
2021/09/01 16:35:25;1002714.00;3.34;1737.28;68317.00;0.23;118.85;;;;;22.10;1.00;;;;;;2578059;55;918;-91
2021/09/01 16:38:14;337644.00;1.13;582.62;6523.00;0.02;11.92;;;;;22.50;1.00;;;;;;2578095;55;970;-92
2021/09/01 16:40:44;811578.00;2.71;1401.32;105128.00;0.35;182.42;;;;;22.70;1.00;;;;;;2574998;55;1302;-91
2021/09/01 16:43:21;556632.00;1.86;959.39;23541.00;0.08;41.40;;;;;22.90;1.00;;;;;;2578075;55;1519;-90
2021/09/01 16:45:49;1020732.00;3.40;1769.23;105099.00;0.35;182.37;;;;;22.80;1.00;;;;;;2567228;56;925;-89
2021/09/01 16:54:00;446536.00;1.49;769.82;6670.00;0.02;12.18;;;;;21.90;1.00;;;;;;2586708;55;609;-91
2021/09/01 18:29:12;111435.00;0.37;193.31;0.00;0.00;0.62;;;;;21.80;1.00;;;;;;2586580;55;542;-88
2021/09/01 18:31:39;183937.00;0.61;318.27;0.00;0.00;0.62;;;;;22.00;1.00;;;;;;2584276;55;1937;-88
2021/09/01 18:34:07;189038.00;0.63;327.05;0.00;0.00;0.62;;;;;22.10;1.00;;;;;;2583403;55;1107;-88
2021/09/01 18:36:34;43543.00;0.15;76.02;0.00;0.00;0.62;;;;;22.20;1.00;;;;;;2581387;55;1065;-88
2021/09/01 18:39:03;173460.00;0.58;300.23;0.00;0.00;0.62;;;;;22.10;1.00;;;;;;2581193;55;1094;-87
2021/09/01 18:41:31;146087.00;0.49;253.06;0.00;0.00;0.62;;;;;21.90;1.00;;;;;;2583335;55;1575;-87
2021/09/01 18:44:01;174683.00;0.58;302.33;0.00;0.00;0.62;;;;;21.70;1.00;;;;;;2581218;55;1082;-88
2021/09/01 18:46:31;163418.00;0.54;282.93;0.00;0.00;0.62;;;;;21.50;1.00;;;;;;2581170;55;1090;-87
2021/09/01 18:48:58;218970.00;0.73;378.57;0.00;0.00;0.62;;;;;21.30;1.00;;;;;;2583407;55;1216;-88
2021/09/01 18:51:26;103145.00;0.34;179.00;0.00;0.00;0.62;;;;;21.30;1.00;;;;;;2581190;55;1892;-87
2021/09/01 18:53:53;184529.00;0.62;319.29;0.00;0.00;0.62;;;;;21.30;1.00;;;;;;2581251;55;1286;-87
2021/09/01 18:56:20;137774.00;0.46;238.73;0.00;0.00;0.62;;;;;21.30;1.00;;;;;;2583466;55;1023;-87
2021/09/01 18:58:47;180474.00;0.60;312.31;0.00;0.00;0.62;;;;;21.30;1.00;;;;;;2581275;55;1113;-87
2021/09/01 19:01:24;117898.00;0.39;204.46;0.00;0.00;0.62;;;;;21.30;1.00;;;;;;2583423;55;1347;-87
2021/09/01 19:03:58;185781.00;0.62;321.44;0.00;0.00;0.62;;;;;21.10;1.00;;;;;;2583442;55;927;-86
2021/09/01 19:06:32;107296.00;0.36;186.16;0.00;0.00;0.62;;;;;21.10;1.00;;;;;;2581242;55;1072;-87
2021/09/01 19:09:04;114552.00;0.38;198.68;0.00;0.00;0.62;;;;;20.80;1.00;;;;;;2583303;55;1584;-86
2021/09/01 19:11:32;121690.00;0.41;211.00;0.00;0.00;0.62;;;;;20.70;1.00;;;;;;2581126;55;1896;-87
2021/09/01 19:14:05;137383.00;0.46;238.06;0.00;0.00;0.62;;;;;20.80;1.00;;;;;;2581000;55;1129;-86
2021/09/01 19:16:32;78205.00;0.26;135.94;0.00;0.00;0.62;;;;;20.90;1.00;;;;;;2581063;55;1136;-87
2021/09/01 19:19:01;108704.00;0.36;188.59;0.00;0.00;0.62;;;;;20.80;1.00;;;;;;2581195;55;1033;-87
2021/09/01 19:21:28;193992.00;0.65;335.58;0.00;0.00;0.62;;;;;20.80;1.00;;;;;;2581239;55;1259;-87
2021/09/01 19:23:56;198548.00;0.66;343.42;0.00;0.00;0.62;;;;;20.40;1.00;;;;;;2583474;55;984;-87
2021/09/01 19:26:25;161654.00;0.54;279.89;0.00;0.00;0.62;;;;;20.10;1.00;;;;;;2581188;55;1021;-87
2021/09/01 19:28:56;347670.00;1.16;599.86;0.00;0.00;0.62;;;;;20.10;1.00;;;;;;2581195;55;1086;-87
2021/09/01 19:31:33;236890.00;0.79;409.40;0.00;0.00;0.62;;;;;20.00;1.00;;;;;;2580905;55;1912;-86
2021/09/01 19:34:04;328108.00;1.09;566.23;0.00;0.00;0.62;;;;;19.90;1.00;;;;;;2583421;55;947;-87
2021/09/01 19:36:33;216245.00;0.72;373.88;0.00;0.00;0.62;;;;;19.80;1.00;;;;;;2583330;55;950;-86
2021/09/01 19:39:03;157133.00;0.52;272.10;0.00;0.00;0.62;;;;;19.50;1.00;;;;;;2581159;55;959;-87
2021/09/01 19:41:33;178018.00;0.59;308.08;0.00;0.00;0.62;;;;;19.60;1.00;;;;;;2581027;55;1327;-86
2021/09/01 19:44:02;324073.00;1.08;559.30;0.00;0.00;0.62;;;;;19.90;1.00;;;;;;2583339;55;1721;-86
2021/09/01 19:46:34;193099.00;0.64;334.04;0.00;0.00;0.62;;;;;20.00;1.00;;;;;;2581149;55;1062;-87
2021/09/01 19:49:04;165820.00;0.55;287.07;0.00;0.00;0.62;;;;;20.10;1.00;;;;;;2583391;55;929;-88
2021/09/01 19:51:33;313588.00;1.05;541.28;0.00;0.00;0.62;;;;;20.20;1.00;;;;;;2581083;55;1945;-88
2021/09/01 19:54:03;290874.00;0.97;502.23;0.00;0.00;0.62;;;;;20.10;1.00;;;;;;2583258;55;910;-87
2021/09/01 19:56:32;108925.00;0.36;188.98;0.00;0.00;0.62;;;;;20.00;1.00;;;;;;2581112;55;948;-87
2021/09/01 19:58:59;164106.00;0.55;284.11;0.00;0.00;0.62;;;;;19.80;1.00;;;;;;2581090;55;1039;-87
2021/09/01 20:01:28;300146.00;1.00;518.17;0.00;0.00;0.62;;;;;20.00;1.00;;;;;;2583047;55;1540;-87
2021/09/01 20:03:56;176965.00;0.59;306.26;0.00;0.00;0.62;;;;;19.90;1.00;;;;;;2581125;55;1109;-88
2021/09/01 20:06:28;377637.00;1.26;651.36;0.00;0.00;0.62;;;;;19.80;1.00;;;;;;2583298;55;1092;-87
2021/09/01 20:08:56;198538.00;0.66;343.41;0.00;0.00;0.62;;;;;19.70;1.00;;;;;;2581098;55;1038;-87
2021/09/01 20:11:25;408927.00;1.36;705.15;0.00;0.00;0.62;;;;;19.80;1.00;;;;;;2581010;55;1953;-85
2021/09/01 20:13:59;201371.00;0.67;348.28;0.00;0.00;0.62;;;;;19.80;1.00;;;;;;2580744;55;1125;-86
2021/09/01 20:16:27;149398.00;0.50;258.77;0.00;0.00;0.62;;;;;19.60;1.00;;;;;;2581087;55;1058;-85
2021/09/01 20:18:58;244878.00;0.82;423.14;0.00;0.00;0.62;;;;;19.40;1.00;;;;;;2583282;55;1132;-85
2021/09/01 20:21:30;197622.00;0.66;341.83;0.00;0.00;0.62;;;;;19.40;1.00;;;;;;2580950;55;1316;-86
2021/09/01 20:24:05;226778.00;0.76;392.01;0.00;0.00;0.62;;;;;19.20;1.00;;;;;;2583005;55;2015;-84
2021/09/01 20:26:36;436527.00;1.46;752.61;38866.00;0.13;67.93;;;;;19.10;1.00;;;;;;2581285;55;1086;-85
2021/09/01 20:29:12;408952.00;1.36;705.20;0.00;0.00;0.62;;;;;18.90;1.00;;;;;;2583507;55;1002;-85
2021/09/01 20:31:44;650445.00;2.17;1121.41;0.00;0.00;0.62;;;;;19.00;1.00;;;;;;2581016;55;1953;-85
2021/09/01 20:34:33;405951.00;1.35;700.04;0.00;0.00;0.62;;;;;19.20;1.00;;;;;;2583207;55;1716;-85
2021/09/01 20:37:01;168743.00;0.56;292.10;0.00;0.00;0.62;;;;;19.50;1.00;;;;;;2573379;55;1062;-86
2021/09/01 20:39:32;84798.00;0.28;147.32;0.00;0.00;0.62;;;;;19.80;1.00;;;;;;2581308;55;1141;-86
2021/09/01 20:42:01;143284.00;0.48;248.23;0.00;0.00;0.62;;;;;20.00;1.00;;;;;;2583358;55;1658;-86
2021/09/01 20:44:40;125757.00;0.42;218.01;0.00;0.00;0.62;;;;;20.20;1.00;;;;;;2583468;55;999;-87
2021/09/01 20:47:11;223980.00;0.75;387.19;0.00;0.00;0.62;;;;;20.40;1.00;;;;;;2581338;55;1086;-86
2021/09/01 20:49:39;121670968.00;405.57;72967888.00;107701.00;0.36;186.86;;;;;20.60;1.00;;;;;;2581185;55;1037;-86
2021/09/01 20:52:10;209822.00;0.70;362.83;0.00;0.00;0.62;;;;;20.60;1.00;;;;;;2581213;55;1906;-86
2021/09/01 20:54:45;133335.00;0.44;231.08;0.00;0.00;0.62;;;;;20.70;1.00;;;;;;2581282;55;1105;-86
2021/09/01 20:57:13;106806.00;0.36;185.32;0.00;0.00;0.62;;;;;20.80;1.00;;;;;;2581280;55;982;-86
2021/09/01 20:59:40;223554.00;0.75;386.46;0.00;0.00;0.62;;;;;20.50;1.00;;;;;;2581315;55;1114;-87
2021/09/01 21:02:07;174602.00;0.58;302.19;0.00;0.00;0.62;;;;;20.60;1.00;;;;;;2583397;55;1243;-86
2021/09/01 21:04:37;156994.00;0.52;271.86;0.00;0.00;0.62;;;;;20.70;1.00;;;;;;2583532;55;945;-87
2021/09/01 21:07:04;204149.00;0.68;353.07;0.00;0.00;0.62;;;;;20.50;1.00;;;;;;2583454;55;923;-86
2021/09/01 21:09:34;349448.00;1.16;602.91;0.00;0.00;0.62;;;;;20.70;1.00;;;;;;2583516;55;1071;-87
2021/09/01 21:12:01;188889.00;0.63;326.80;0.00;0.00;0.62;;;;;20.80;1.00;;;;;;2581244;55;1900;-86
2021/09/01 21:14:27;206982.00;0.69;357.94;0.00;0.00;0.62;;;;;20.50;1.00;;;;;;2581070;55;1069;-85
2021/09/01 21:17:01;184872.00;0.62;319.88;0.00;0.00;0.62;;;;;20.30;1.00;;;;;;2581302;55;1106;-86
2021/09/01 21:19:44;353423.00;1.18;609.74;78175.00;0.26;135.88;;;;;20.30;1.00;;;;;;2581251;55;1060;-85
2021/09/01 21:22:12;132668960.00;442.23;94621048.00;66963.00;0.22;116.51;;;;;20.30;1.00;;;;;;2581251;55;1435;-86
2021/09/01 21:24:45;323133.00;1.08;557.68;75976.00;0.25;132.09;;;;;20.20;1.00;;;;;;2583452;55;915;-86
2021/09/01 21:27:13;361496.00;1.20;623.62;83393.00;0.28;144.90;;;;;20.00;1.00;;;;;;2581163;55;1130;-86
2021/09/01 21:29:42;687690.00;2.29;1185.90;184778.00;0.62;319.72;;;;;20.10;1.00;;;;;;2581277;55;1079;-86
2021/09/01 21:32:10;389251.00;1.30;671.33;68994.00;0.23;120.02;;;;;20.40;1.00;;;;;;2581112;55;1902;-86
2021/09/01 21:34:38;352444.00;1.17;608.06;83091.00;0.28;144.38;;;;;20.40;1.00;;;;;;2583400;55;1965;-85
2021/09/01 21:37:07;319775.00;1.07;551.91;80902.00;0.27;140.60;;;;;20.50;1.00;;;;;;2581184;55;1090;-86
2021/09/01 21:39:34;309189.00;1.03;533.72;74158.00;0.25;128.94;;;;;20.70;1.00;;;;;;2581273;55;1062;-87
2021/09/01 21:42:03;341439.00;1.14;589.15;73643.00;0.25;128.06;;;;;20.80;1.00;;;;;;2581229;55;1278;-87
2021/09/01 21:44:30;406658.00;1.36;701.25;51756.00;0.17;90.22;;;;;20.90;1.00;;;;;;2581183;55;1109;-86
2021/09/01 21:46:57;491385.00;1.64;846.99;78003.00;0.26;135.59;;;;;21.00;1.00;;;;;;2581259;55;1093;-86
2021/09/01 21:49:34;360116.00;1.20;621.25;78062.00;0.26;135.69;;;;;20.90;1.00;;;;;;2581100;55;1049;-88
2021/09/01 21:52:05;385735.00;1.29;665.28;80610.00;0.27;140.09;;;;;20.70;1.00;;;;;;2560305;56;1922;-89
2021/09/01 21:54:41;539104.00;1.80;929.18;72402.00;0.24;125.91;;;;;20.60;1.00;;;;;;2572292;55;958;-89
2021/09/01 22:05:07;702989.00;2.34;1212.42;0.00;0.00;0.62;;;;;20.60;1.00;;;;;;2576039;55;575;-90
2021/09/01 22:07:51;464931.00;1.55;801.47;3097.00;0.01;5.99;;;;;20.70;1.00;;;;;;2567100;55;1011;-89
2021/09/01 22:10:25;337322.00;1.12;582.07;0.00;0.00;0.62;;;;;20.70;1.00;;;;;;2559834;56;943;-89
2021/09/01 22:12:59;291396.00;0.97;503.13;0.00;0.00;0.62;;;;;20.90;1.00;;;;;;2544764;56;1907;-90
2021/09/01 22:15:28;402089.00;1.34;693.40;0.00;0.00;0.62;;;;;20.80;1.00;;;;;;2546909;56;1000;-91
2021/09/01 22:20:32;300867.00;1.00;519.41;0.00;0.00;0.62;;;;;20.30;1.00;;;;;;2575993;55;596;-90
2021/09/01 22:23:06;543351.00;1.81;936.50;0.00;0.00;0.62;;;;;19.90;1.00;;;;;;2572021;55;1470;-89
2021/09/01 22:25:39;535292.00;1.78;922.61;54157.00;0.18;94.37;;;;;19.40;1.00;;;;;;2567000;55;1090;-90
2021/09/01 22:28:06;378061.00;1.26;652.09;0.00;0.00;0.62;;;;;19.40;1.00;;;;;;2567213;56;1110;-90
2021/09/01 22:30:38;473177.00;1.58;815.66;0.00;0.00;0.62;;;;;19.70;1.00;;;;;;2561939;55;1019;-90
2021/09/01 22:33:08;410393.00;1.37;707.67;0.00;0.00;0.62;;;;;19.80;1.00;;;;;;2551542;56;1965;-89
2021/09/01 22:35:57;;;;;;;;;;;;;;;;;;;;;
2021/09/01 22:49:06;640260.00;2.13;1103.79;115844.00;0.39;200.91;;;;;19.40;1.00;;;;;;2575826;55;564;-89
2021/09/01 22:51:52;117754688.00;392.52;66140380.00;82769.00;0.28;143.82;;;;;19.40;1.00;;;;;;2575892;55;1406;-89
2021/09/01 22:54:19;943470.00;3.14;1632.60;99544.00;0.33;172.78;;;;;19.40;1.00;;;;;;2546663;56;1153;-89
2021/09/01 22:56:51;754074.00;2.51;1301.14;80386.00;0.27;139.70;;;;;19.60;1.00;;;;;;2546850;56;1157;-89
2021/09/01 22:59:43;698210.00;2.33;1204.13;83864.00;0.28;145.71;;;;;19.70;1.00;;;;;;2546765;56;1134;-89
2021/09/01 23:02:14;849082.00;2.83;1466.86;95892.00;0.32;166.48;;;;;19.90;1.00;;;;;;2536421;56;1360;-89
2021/09/01 23:04:45;1000706.00;3.34;1733.72;39813.00;0.13;69.56;;;;;20.10;1.00;;;;;;2521552;56;1047;-89
2021/09/01 23:07:18;1558270.00;5.19;2753.25;136471.00;0.45;236.49;;;;;20.20;1.00;;;;;;2511665;57;1100;-89
2021/09/01 23:09:52;769768.00;2.57;1328.45;0.00;0.00;0.62;;;;;20.10;1.00;;;;;;2511713;57;1174;-90
2021/09/01 23:12:28;973801.00;3.25;1686.12;0.00;0.00;0.62;;;;;20.10;1.00;;;;;;2516192;56;1891;-88
2021/09/01 23:14:58;1130715.00;3.77;1965.44;755.00;0.00;1.93;;;;;19.80;1.00;;;;;;2516331;56;985;-89
2021/09/01 23:17:30;800519.00;2.67;1382.03;0.00;0.00;0.62;;;;;19.70;1.00;;;;;;2516710;56;1075;-89
2021/09/01 23:19:57;714560.00;2.38;1232.50;0.00;0.00;0.62;;;;;19.60;1.00;;;;;;2516736;56;1059;-90
2021/09/01 23:22:31;1394067.00;4.65;2445.32;190174.00;0.63;329.01;;;;;19.90;1.00;;;;;;2509934;56;1365;-90
2021/09/01 23:33:13;331576.00;1.11;572.19;0.00;0.00;0.62;;;;;19.70;1.00;;;;;;2580966;55;1878;-89
2021/09/01 23:35:46;594777.00;1.98;1025.20;0.00;0.00;0.62;;;;;19.50;1.00;;;;;;2572212;55;1049;-89
2021/09/01 23:38:20;361444.00;1.20;623.53;0.00;0.00;0.62;;;;;19.70;1.00;;;;;;2561943;56;908;-89
2021/09/01 23:41:02;418439.00;1.39;721.51;0.00;0.00;0.62;;;;;19.30;1.00;;;;;;2562009;55;1397;-90
2021/09/01 23:48:31;464376.00;1.55;800.51;0.00;0.00;0.62;;;;;18.90;1.00;;;;;;2580118;55;1042;-90
2021/09/01 23:51:00;430209.00;1.43;741.75;19302.00;0.06;34.06;;;;;19.20;1.00;;;;;;2567173;55;1415;-90
2021/09/01 23:54:00;624133.00;2.08;1075.91;0.00;0.00;0.62;;;;;19.50;1.00;;;;;;2551709;56;1915;-90
